x

Cape Edgecumbe - 25nm Ssw Of Cape Edgecumbe, Ak (46084) Wave Buoy

4:50am - Wed 23rd Apr 2014 All times are AKDT. -8 hours from GMT.

  • Sig Wave height 5.9ft
  • Peak Period 10s
  • Average Period 6s
  • Wind
    11mph, 16mph gusts
  • Sea Temp 44°f
  • Air Temp 42°f
  • Sea Pressure 1008.9mb
  • Cape Edgecumbe - 25nm Ssw Of Cape Edgecumbe, Ak
  • Cape Edgecumbe - 25nm Ssw Of Cape Edgecumbe, Ak

More Historic Weather Station data

Upgrade to MSW Pro to gain access to the past 30 days of data for over 8000 Wavebouys and Weather Stations around the globe.

Join Pro

Comparision Forecast

View Surf forecast
   
Wed 04/23 4:50am 6ft 10s 6s 11 16 mph 1008.9mb 44f 42f
3:50am 6.5ft 11s 6s 11 13 mph 1009mb 44f 42f
2:50am 6.5ft 11s 6s 13 16 mph 1008.8mb 44f 42f
1:50am 6.5ft 11s 7s 11 13 mph 1008.8mb 44f 42f
12:50am 6.5ft 11s 6s 13 18 mph 1008.8mb 44f 42f
Tue 04/22 11:50pm 7ft 11s 7s 13 16 mph 1008.8mb 44f 42f
10:50pm 6.5ft 11s 6s 16 20 mph 1008.6mb 44f 42f
9:50pm 8ft 11s 7s 16 20 mph 1008.5mb 44f 42f
8:50pm 7ft 11s 6s 18 22 mph 1008.4mb 44f 42f
7:50pm 8ft 11s 6s 18 22 mph 1008.1mb 44f 43f
6:50pm 8ft 11s 6s 20 27 mph 1008.2mb 44f 42f
5:50pm 8ft 11s 6s 20 25 mph 1008.7mb 44f 42f
4:50pm 8ft 11s 6s 22 27 mph 1008.8mb 44f 42f
3:50pm 8ft 11s 6s 20 25 mph 1008.9mb 44f 43f
2:50pm 8ft 11s 6s 20 25 mph 1009.3mb 44f 43f
1:50pm 8ft 11s 6s 20 25 mph 1009.3mb 44f 42f
12:50pm 8.5ft 12s 7s 20 22 mph 1009.4mb 43f 42f
11:50am 8ft 11s 7s 20 25 mph 1009.5mb 43f 42f
10:50am 9ft 12s 7s 20 25 mph 1009.7mb 43f 42f
9:50am 8ft 12s 7s 18 25 mph 1009.8mb 43f 42f
8:50am 9.5ft 11s 8s 18 25 mph 1010.1mb 43f 42f
7:50am 9ft 11s 8s 18 22 mph 1010.8mb 43f 42f
6:50am 10ft 12s 8s 16 20 mph 1011.3mb 43f 42f
5:50am 9ft 13s 8s 18 20 mph 1011.6mb 43f 42f
4:50am 9ft 12s 8s 13 18 mph 1012.3mb 43f 42f
3:50am 10ft 13s 9s 13 16 mph 1013mb 43f 43f
2:50am 10ft 11s 9s 13 16 mph 1013.3mb 43f 43f
1:50am 9.5ft 12s 9s 13 18 mph 1013.9mb 43f 43f
12:50am 9ft 12s 9s 13 16 mph 1014.5mb 43f 43f
Mon 04/21 11:50pm 10.5ft 13s 9s 11 13 mph 1014.9mb 43f 43f
10:50pm 10.5ft 13s 9s 9 11 mph 1015.3mb 43f 43f
9:50pm 10.5ft 12s 9s 7 9 mph 1015.8mb 43f 42f
8:50pm 11ft 12s 8s 4 7 mph 1016mb 44f 42f
7:50pm 10ft 12s 8s 2 4 mph 1016mb 44f 43f
6:50pm 11ft 11s 8s  -  2 mph 1016.3mb 44f 44f
5:50pm 11ft 13s 8s 2 7 mph 1016.4mb 44f 43f
4:50pm 10ft 11s 8s 7 9 mph 1016.6mb 44f 43f
3:50pm 11ft 11s 8s 11 13 mph 1016.9mb 43f 43f
2:50pm 11.5ft 13s 8s 13 16 mph 1017.2mb 43f 43f
1:50pm 10.5ft 12s 8s 9 16 mph 1017.4mb 43f 42f
12:50pm 10ft 10s 8s 16 20 mph 1016.8mb 43f 42f
11:50am 10ft 13s 8s 11 18 mph 1016.3mb 43f 41f
10:50am 10ft 11s 8s 11 13 mph 1015.5mb 43f 43f
9:50am 11ft 11s 7s 13 18 mph 1014.3mb 43f 42f
8:50am 10ft 9s 7s 20 25 mph 1013mb 43f 42f
7:50am 11.5ft 12s 7s 20 25 mph 1011.4mb 43f 42f
6:50am 11ft 10s 7s 22 27 mph 1010.1mb 43f 43f
5:50am 13ft 12s 8s 22 27 mph 1009.5mb 43f 43f
4:50am 11.5ft 11s 8s 18 25 mph 1009mb 43f 44f
3:50am 13ft 12s 8s 16 20 mph 1008.7mb 43f 44f
2:50am 11ft 12s 8s 16 20 mph 1008.2mb 43f 45f
1:50am 11.5ft 13s 8s 16 20 mph 1007.8mb 43f 46f
12:50am 11.5ft 12s 8s 16 20 mph 1007.5mb 43f 46f
Sun 04/20 11:50pm 11ft 11s 8s 16 20 mph 1007.2mb 43f 45f
10:50pm 11ft 10s 8s 16 20 mph 1007.2mb 43f 45f
9:50pm 11.5ft 13s 8s 18 25 mph 1007.2mb 43f 45f
8:50pm 13ft 13s 8s 20 25 mph 1006.8mb 43f 45f
7:50pm 14ft 10s 8s 16 22 mph 1006.4mb 43f 45f
6:50pm 14ft 10s 8s 16 20 mph 1006.3mb 43f 44f
5:50pm 14ft 13s 8s 16 20 mph 1006.4mb 43f 44f
4:50pm 15ft 13s 8s 20 27 mph 1005.9mb 43f 45f
3:50pm 15ft 12s 8s 18 22 mph 1006mb 43f 45f
2:50pm 16.5ft 12s 9s 18 27 mph 1005.9mb 43f 45f
1:50pm 18.5ft 13s 9s 20 27 mph 1006.2mb 43f 46f
12:50pm 17ft 13s 9s 25 34 mph 1006.4mb 43f 46f
11:50am 14.5ft 14s 8s 22 27 mph 1006.6mb 43f 45f
10:50am 15ft 14s 8s 25 31 mph 1006.6mb 43f 45f
9:50am 15.5ft 11s 8s 27 34 mph 1006.3mb 43f 45f
8:50am 14.5ft 14s 7s 29 36 mph 1005.9mb 43f 45f
7:50am 13.5ft 12s 7s 29 36 mph 1005.3mb 43f 45f
6:50am 14ft 14s 7s 27 34 mph 1004.1mb 43f 45f
5:50am 15ft 12s 7s 29 36 mph 1002.6mb 44f 43f
4:50am 15ft 12s 7s 29 36 mph 1001.4mb 44f 45f
3:50am 16ft 13s 8s 29 36 mph 999.8mb 44f 44f
2:50am 17ft 11s 8s 29 40 mph 998.2mb 44f 44f
1:50am 16.5ft 14s 8s 29 38 mph 996.4mb 43f 44f
12:50am 18.5ft 15s 8s 29 38 mph 994.7mb 44f 44f
Sat 04/19 11:50pm 17ft 15s 8s 38 47 mph 992.5mb 44f 44f
10:50pm 16.5ft 13s 9s 31 40 mph 991.7mb 44f 47f
9:50pm 14.5ft 13s 8s 25 29 mph 991.5mb 44f 46f
8:50pm 14.5ft 13s 9s 20 22 mph 991.1mb 44f 47f
7:50pm 15ft 13s 9s 18 22 mph 990.8mb 44f 46f
6:50pm 15ft 13s 9s 20 22 mph 990.7mb 44f 46f
5:50pm 14.5ft 12s 8s 22 29 mph 990.5mb 44f 47f
4:50pm 16.5ft 13s 9s 22 27 mph 990.8mb 44f 47f
3:50pm 15ft 13s 8s 25 27 mph 991.4mb 44f 46f
2:50pm 14ft 11s 8s 27 31 mph 991.8mb 44f 46f
1:50pm 13.5ft 12s 8s 27 34 mph 992.2mb 44f 46f